createdAt,value
2023-01-08T00:01:04.794Z,97092.88
2023-01-08T00:03:32.446Z,97093.28
2023-01-08T00:06:01.944Z,97096.78
2023-01-08T00:08:30.791Z,97097.41
2023-01-08T00:10:58.706Z,97104.44
2023-01-08T00:13:26.777Z,97108.13
2023-01-08T00:15:54.356Z,97096.38
2023-01-08T00:18:23.705Z,97097.00
2023-01-08T00:20:51.229Z,97099.88
2023-01-08T00:23:19.761Z,97100.72
2023-01-08T00:25:47.347Z,97110.63
2023-01-08T00:28:14.836Z,97109.38
2023-01-08T00:30:42.936Z,97111.84
2023-01-08T00:33:10.711Z,97113.28
2023-01-08T00:35:40.524Z,97114.50
2023-01-08T00:38:07.813Z,97122.16
2023-01-08T00:40:36.292Z,97113.28
2023-01-08T00:43:04.377Z,97108.97
2023-01-08T00:45:31.867Z,97111.41
2023-01-08T00:47:59.825Z,97108.34
2023-01-08T00:50:27.301Z,97112.25
2023-01-08T00:52:56.241Z,97105.69
2023-01-08T00:55:23.704Z,97109.56
2023-01-08T00:57:51.272Z,97110.81
2023-01-08T01:00:18.769Z,97110.19
2023-01-08T01:02:46.215Z,97107.94
2023-01-08T01:05:14.134Z,97103.38
2023-01-08T01:07:41.777Z,97113.50
2023-01-08T01:10:11.802Z,97112.03
2023-01-08T01:12:39.725Z,97120.09
2023-01-08T01:15:10.046Z,97127.53
2023-01-08T01:17:40.408Z,97120.09
2023-01-08T01:20:09.957Z,97129.59
2023-01-08T01:22:38.099Z,97124.81
2023-01-08T01:25:06.346Z,97126.69
2023-01-08T01:27:35.395Z,97117.19
2023-01-08T01:30:03.381Z,97120.31
2023-01-08T01:32:30.827Z,97120.50
2023-01-08T01:34:58.255Z,97119.28
2023-01-08T01:37:25.674Z,97116.00
2023-01-08T01:39:53.075Z,97124.66
2023-01-08T01:42:20.803Z,97110.81
2023-01-08T01:44:50.172Z,97122.16
2023-01-08T01:47:24.707Z,97123.38
2023-01-08T01:49:57.308Z,97129.16
2023-01-08T01:52:25.932Z,97129.81
2023-01-08T01:54:53.897Z,97123.59
2023-01-08T01:57:22.267Z,97121.34
2023-01-08T01:59:51.519Z,97127.94
2023-01-08T02:02:21.281Z,97132.47
2023-01-08T02:04:50.623Z,97134.09
2023-01-08T02:07:26.052Z,97133.31
2023-01-08T02:10:03.616Z,97132.06
2023-01-08T02:12:34.158Z,97129.38
2023-01-08T02:15:10.700Z,97138.84
2023-01-08T02:17:45.565Z,97138.84
2023-01-08T02:20:17.396Z,97140.72
2023-01-08T02:22:57.373Z,97150.19
2023-01-08T02:25:37.604Z,97150.63
2023-01-08T02:28:11.703Z,97150.00
2023-01-08T02:30:39.514Z,97160.91
2023-01-08T02:33:07.027Z,97153.91
2023-01-08T02:35:38.666Z,97160.91
2023-01-08T02:38:06.862Z,97166.69
2023-01-08T02:40:42.277Z,97167.50
2023-01-08T02:43:15.201Z,97174.94
2023-01-08T02:45:46.435Z,97184.63
2023-01-08T02:48:19.692Z,97180.72
2023-01-08T02:50:53.624Z,97177.19
2023-01-08T02:53:25.149Z,97185.03
2023-01-08T02:55:55.552Z,97190.59
2023-01-08T02:58:27.747Z,97200.50
2023-01-08T03:00:55.431Z,97191.44
2023-01-08T03:03:25.883Z,97192.47
2023-01-08T03:05:56.893Z,97196.78
2023-01-08T03:08:25.233Z,97200.28
2023-01-08T03:10:57.316Z,97191.00
2023-01-08T03:13:32.022Z,97199.84
2023-01-08T03:16:03.895Z,97188.75
2023-01-08T03:18:38.181Z,97191.81
2023-01-08T03:21:06.678Z,97195.75
2023-01-08T03:23:37.296Z,97189.00
2023-01-08T03:26:06.507Z,97182.28
2023-01-08T03:28:39.360Z,97194.28
2023-01-08T03:31:08.774Z,97199.63
2023-01-08T03:33:38.509Z,97193.88
2023-01-08T03:36:08.823Z,97198.00
2023-01-08T03:38:41.911Z,97194.72
2023-01-08T03:41:13.951Z,97201.47
2023-01-08T03:43:42.977Z,97210.38
2023-01-08T03:46:16.549Z,97207.69
2023-01-08T03:48:44.939Z,97210.13
2023-01-08T03:51:12.539Z,97213.66
2023-01-08T03:53:40.033Z,97215.50
2023-01-08T03:56:08.181Z,97222.13
2023-01-08T03:58:35.656Z,97226.03
2023-01-08T04:01:04.761Z,97223.56
2023-01-08T04:03:32.431Z,97219.81
2023-01-08T04:06:00.263Z,97223.34
2023-01-08T04:08:27.824Z,97223.53
2023-01-08T04:10:56.067Z,97236.94
2023-01-08T04:13:23.730Z,97235.50
2023-01-08T04:15:51.653Z,97244.34
2023-01-08T04:18:21.270Z,97234.03
2023-01-08T04:20:49.156Z,97238.19
2023-01-08T04:23:16.836Z,97241.91
2023-01-08T04:25:44.230Z,97253.22
2023-01-08T04:28:11.964Z,97246.25
2023-01-08T04:30:40.177Z,97247.44
2023-01-08T04:33:07.968Z,97251.34
2023-01-08T04:35:37.252Z,97248.69
2023-01-08T04:38:05.111Z,97246.22
2023-01-08T04:40:33.407Z,97254.25
2023-01-08T04:43:01.122Z,97260.22
2023-01-08T04:45:28.630Z,97250.50
2023-01-08T04:47:56.698Z,97251.56
2023-01-08T04:50:24.648Z,97254.88
2023-01-08T04:52:54.056Z,97254.47
2023-01-08T04:55:21.668Z,97263.91
2023-01-08T04:57:49.204Z,97258.97
2023-01-08T05:00:17.960Z,97267.44
2023-01-08T05:02:45.699Z,97275.50
2023-01-08T05:05:14.089Z,97271.81
2023-01-08T05:07:41.688Z,97280.84
2023-01-08T05:10:11.020Z,97271.16
2023-01-08T05:12:38.583Z,97281.84
2023-01-08T05:15:06.980Z,97280.22
2023-01-08T05:17:34.662Z,97275.25
2023-01-08T05:20:02.155Z,97278.78
2023-01-08T05:22:29.912Z,97273.00
2023-01-08T05:24:57.496Z,97273.00
2023-01-08T05:27:28.132Z,97273.41
2023-01-08T05:29:55.809Z,97277.94
2023-01-08T05:32:23.344Z,97281.25
2023-01-08T05:34:51.064Z,97267.00
2023-01-08T05:37:18.670Z,97279.00
2023-01-08T05:39:46.226Z,97277.97
2023-01-08T05:42:14.832Z,97283.91
2023-01-08T05:44:44.342Z,97301.84
2023-01-08T05:47:12.280Z,97288.91
2023-01-08T05:49:40.303Z,97283.22
2023-01-08T05:52:08.388Z,97287.38
2023-01-08T05:54:35.906Z,97285.28
2023-01-08T05:57:03.359Z,97291.53
2023-01-08T05:59:30.940Z,97288.00
2023-01-08T06:02:00.001Z,97284.88
2023-01-08T06:04:27.704Z,97283.00
2023-01-08T06:06:55.229Z,97276.03
2023-01-08T06:09:23.072Z,97276.63
2023-01-08T06:11:51.564Z,97278.28
2023-01-08T06:14:19.673Z,97282.41
2023-01-08T06:16:47.343Z,97284.69
2023-01-08T06:19:16.744Z,97291.25
2023-01-08T06:21:44.367Z,97291.88
2023-01-08T06:24:12.472Z,97293.34
2023-01-08T06:26:39.993Z,97284.94
2023-01-08T06:29:07.983Z,97279.59
2023-01-08T06:31:36.371Z,97284.94
2023-01-08T06:34:04.055Z,97289.44
2023-01-08T06:36:33.411Z,97297.91
2023-01-08T06:39:01.019Z,97290.69
2023-01-08T06:41:28.801Z,97306.38
2023-01-08T06:43:56.237Z,97307.16
2023-01-08T06:46:24.224Z,97302.66
2023-01-08T06:48:52.356Z,97310.91
2023-01-08T06:51:20.208Z,97312.56
2023-01-08T06:53:49.823Z,97313.44
2023-01-08T06:56:17.432Z,97310.94
2023-01-08T06:58:44.989Z,97301.66
2023-01-08T07:01:14.860Z,97303.50
2023-01-08T07:03:43.172Z,97312.38
2023-01-08T07:06:15.536Z,97305.97
2023-01-08T07:08:43.038Z,97303.50
2023-01-08T07:11:11.963Z,97317.13
2023-01-08T07:13:39.682Z,97315.16
2023-01-08T07:16:08.059Z,97310.34
2023-01-08T07:18:36.874Z,97311.25
2023-01-08T07:21:05.080Z,97304.66
2023-01-08T07:23:32.898Z,97306.63
2023-01-08T07:26:01.053Z,97301.66
2023-01-08T07:28:30.555Z,97292.38
2023-01-08T07:30:58.280Z,97305.88
2023-01-08T07:33:25.816Z,97295.72
2023-01-08T07:35:53.809Z,97302.22
2023-01-08T07:38:21.376Z,97301.97
2023-01-08T07:40:49.556Z,97299.75
2023-01-08T07:43:17.330Z,97304.66
2023-01-08T07:45:46.415Z,97298.69
2023-01-08T07:48:14.490Z,97305.53
2023-01-08T07:50:42.752Z,97305.09
2023-01-08T07:53:11.037Z,97304.69
2023-01-08T07:55:38.525Z,97306.94
2023-01-08T07:58:10.698Z,97306.13
2023-01-08T08:00:38.708Z,97304.06
2023-01-08T08:03:09.238Z,97307.94
2023-01-08T08:05:36.748Z,97303.47
2023-01-08T08:08:08.891Z,97307.16
2023-01-08T08:10:36.395Z,97307.56
2023-01-08T08:13:04.567Z,97304.94
2023-01-08T08:15:32.658Z,97308.34
2023-01-08T08:18:00.798Z,97313.53
2023-01-08T08:20:30.200Z,97313.72
2023-01-08T08:23:01.124Z,97324.00
2023-01-08T08:25:28.851Z,97323.66
2023-01-08T08:27:58.057Z,97316.06
2023-01-08T08:30:26.149Z,97313.50
2023-01-08T08:32:54.070Z,97323.31
2023-01-08T08:35:22.416Z,97325.13
2023-01-08T08:37:51.394Z,97318.97
2023-01-08T08:40:18.861Z,97327.38
2023-01-08T08:42:46.300Z,97315.25
2023-01-08T08:45:14.633Z,97321.44
2023-01-08T08:47:42.061Z,97319.78
2023-01-08T08:50:10.594Z,97328.22
2023-01-08T08:52:38.011Z,97322.88
2023-01-08T08:55:07.493Z,97326.16
2023-01-08T08:57:34.920Z,97332.97
2023-01-08T09:00:02.402Z,97328.41
2023-01-08T09:02:30.034Z,97327.19
2023-01-08T09:04:57.574Z,97322.63
2023-01-08T09:07:25.030Z,97331.34
2023-01-08T09:09:52.426Z,97323.31
2023-01-08T09:12:21.380Z,97325.75
2023-01-08T09:14:48.828Z,97331.09
2023-01-08T09:17:16.378Z,97329.69
2023-01-08T09:19:43.801Z,97330.19
2023-01-08T09:22:11.335Z,97333.78
2023-01-08T09:24:39.280Z,97341.66
2023-01-08T09:27:07.011Z,97339.59
2023-01-08T09:29:36.749Z,97338.75
2023-01-08T09:32:06.468Z,97335.84
2023-01-08T09:34:33.596Z,97337.91
2023-01-08T09:37:01.032Z,97339.56
2023-01-08T09:39:29.243Z,97336.69
2023-01-08T09:41:59.169Z,97341.22
2023-01-08T09:44:31.472Z,97335.91
2023-01-08T09:47:00.619Z,97340.19
2023-01-08T09:49:36.604Z,97328.25
2023-01-08T09:52:04.260Z,97335.09
2023-01-08T09:54:32.090Z,97332.81
2023-01-08T09:57:00.001Z,97330.94
2023-01-08T09:59:27.761Z,97344.91
2023-01-08T10:01:55.413Z,97333.06
2023-01-08T10:04:26.387Z,97336.16
2023-01-08T10:06:56.156Z,97340.44
2023-01-08T10:09:26.502Z,97338.78
2023-01-08T10:11:56.761Z,97337.31
2023-01-08T10:14:28.221Z,97342.69
2023-01-08T10:16:59.045Z,97344.38
2023-01-08T10:19:28.051Z,97343.38
2023-01-08T10:21:57.635Z,97340.19
2023-01-08T10:24:32.763Z,97347.16
2023-01-08T10:27:07.032Z,97342.16
2023-01-08T10:29:34.611Z,97349.47
2023-01-08T10:32:09.811Z,97346.72
2023-01-08T10:34:45.201Z,97347.75
2023-01-08T10:37:22.525Z,97351.66
2023-01-08T10:39:50.383Z,97350.63
2023-01-08T10:42:19.645Z,97348.56
2023-01-08T10:44:55.981Z,97357.28
2023-01-08T10:47:25.136Z,97360.53
2023-01-08T10:49:54.607Z,97351.25
2023-01-08T10:52:33.271Z,97345.94
2023-01-08T10:55:12.744Z,97350.88
2023-01-08T10:57:42.055Z,97358.47
2023-01-08T11:00:25.521Z,97356.41
2023-01-08T11:02:53.302Z,97359.28
2023-01-08T11:05:30.465Z,97354.94
2023-01-08T11:08:00.114Z,97362.03
2023-01-08T11:10:29.266Z,97369.78
2023-01-08T11:12:59.319Z,97373.13
2023-01-08T11:15:31.238Z,97370.59
2023-01-08T11:18:17.139Z,97371.63
2023-01-08T11:20:46.555Z,97377.97
2023-01-08T11:23:18.897Z,97377.00
2023-01-08T11:25:55.076Z,97384.31
2023-01-08T11:28:29.915Z,97384.25
2023-01-08T11:31:10.694Z,97388.72
2023-01-08T11:33:40.016Z,97390.00
2023-01-08T11:36:18.246Z,97378.44
2023-01-08T11:38:45.705Z,97389.19
2023-01-08T11:41:34.715Z,97390.81
2023-01-08T11:44:23.899Z,97392.50
2023-01-08T11:47:01.302Z,97394.69
2023-01-08T11:49:56.105Z,97390.19
2023-01-08T11:52:35.600Z,97394.13
2023-01-08T11:55:16.248Z,97401.56
2023-01-08T11:57:56.769Z,97404.63
2023-01-08T12:00:38.267Z,97406.72
2023-01-08T12:03:16.507Z,97413.13
2023-01-08T12:05:50.341Z,97411.63
2023-01-08T12:08:27.366Z,97405.13
2023-01-08T12:11:03.897Z,97412.56
2023-01-08T12:13:41.643Z,97407.78
2023-01-08T12:16:27.942Z,97415.63
2023-01-08T12:19:10.696Z,97408.44
2023-01-08T12:21:51.623Z,97410.03
2023-01-08T12:24:35.416Z,97404.91
2023-01-08T12:27:15.594Z,97415.09
2023-01-08T12:30:05.550Z,97423.09
2023-01-08T12:32:35.846Z,97412.56
2023-01-08T12:35:10.578Z,97422.44
2023-01-08T12:37:44.680Z,97411.56
2023-01-08T12:40:22.801Z,97413.00
2023-01-08T12:43:00.299Z,97422.28
2023-01-08T12:45:30.659Z,97426.97
2023-01-08T12:48:01.236Z,97419.28
2023-01-08T12:50:41.285Z,97425.81
2023-01-08T12:53:17.825Z,97433.84
2023-01-08T12:55:52.571Z,97442.69
2023-01-08T12:58:31.689Z,97439.88
2023-01-08T13:01:08.345Z,97442.00
2023-01-08T13:03:36.946Z,97444.72
2023-01-08T13:06:10.387Z,97457.34
2023-01-08T13:08:39.452Z,97448.50
2023-01-08T13:11:09.035Z,97458.19
2023-01-08T13:13:38.735Z,97448.53
2023-01-08T13:16:20.474Z,97461.03
2023-01-08T13:18:56.080Z,97459.66
2023-01-08T13:21:35.781Z,97468.28
2023-01-08T13:24:04.137Z,97468.69
2023-01-08T13:26:34.495Z,97466.66
2023-01-08T13:29:26.083Z,97468.91
2023-01-08T13:31:54.058Z,97469.19
2023-01-08T13:34:35.830Z,97479.34
2023-01-08T13:37:03.325Z,97485.19
2023-01-08T13:39:37.222Z,97487.38
2023-01-08T13:42:23.177Z,97489.69
2023-01-08T13:44:52.415Z,97485.88
2023-01-08T13:47:27.344Z,97491.53
2023-01-08T13:49:56.397Z,97495.47
2023-01-08T13:52:40.096Z,97493.19
2023-01-08T13:55:18.024Z,97490.94
2023-01-08T13:57:52.260Z,97499.97
2023-01-08T14:00:24.549Z,97502.66
2023-01-08T14:02:52.363Z,97501.63
2023-01-08T14:05:25.583Z,97503.72
2023-01-08T14:07:53.821Z,97501.41
2023-01-08T14:10:22.340Z,97502.06
2023-01-08T14:12:51.765Z,97509.00
2023-01-08T14:15:25.867Z,97510.00
2023-01-08T14:17:54.239Z,97505.78
2023-01-08T14:20:28.971Z,97519.41
2023-01-08T14:22:56.671Z,97508.72
2023-01-08T14:25:24.319Z,97514.00
2023-01-08T14:28:04.116Z,97518.44
2023-01-08T14:30:32.052Z,97521.50
2023-01-08T14:33:02.524Z,97514.81
2023-01-08T14:35:34.838Z,97528.09
2023-01-08T14:38:02.991Z,97530.34
2023-01-08T14:40:33.382Z,97530.16
2023-01-08T14:43:08.896Z,97524.31
2023-01-08T14:45:38.466Z,97531.19
2023-01-08T14:48:12.383Z,97537.81
2023-01-08T14:50:42.040Z,97538.63
2023-01-08T14:53:15.295Z,97536.28
2023-01-08T14:55:47.867Z,97540.88
2023-01-08T14:58:20.564Z,97549.75
2023-01-08T15:00:53.889Z,97553.63
2023-01-08T15:03:31.241Z,97563.88
2023-01-08T15:05:58.899Z,97561.94
2023-01-08T15:08:32.504Z,97561.09
2023-01-08T15:11:02.021Z,97564.91
2023-01-08T15:13:35.533Z,97573.75
2023-01-08T15:16:08.886Z,97572.94
2023-01-08T15:18:43.673Z,97573.94
2023-01-08T15:21:16.356Z,97581.38
2023-01-08T15:23:48.602Z,97566.41
2023-01-08T15:26:17.556Z,97574.28
2023-01-08T15:28:56.570Z,97571.09
2023-01-08T15:31:26.203Z,97580.41
2023-01-08T15:33:53.778Z,97573.84
2023-01-08T15:36:21.290Z,97582.81
2023-01-08T15:38:48.973Z,97587.16
2023-01-08T15:41:19.767Z,97588.63
2023-01-08T15:43:51.369Z,97591.88
2023-01-08T15:46:18.897Z,97587.25
2023-01-08T15:48:46.367Z,97599.97
2023-01-08T15:51:13.844Z,97605.25
2023-01-08T15:53:41.311Z,97595.38
2023-01-08T15:56:08.740Z,97598.38
2023-01-08T15:58:36.176Z,97610.50
2023-01-08T16:01:05.400Z,97608.56
2023-01-08T16:03:32.855Z,97607.25
2023-01-08T16:06:00.399Z,97617.97
2023-01-08T16:08:27.836Z,97612.78
2023-01-08T16:10:55.505Z,97618.81
2023-01-08T16:13:23.035Z,97620.50
2023-01-08T16:15:50.497Z,97619.75
2023-01-08T16:18:19.921Z,97618.94
2023-01-08T16:20:47.507Z,97623.44
2023-01-08T16:23:14.952Z,97633.50
2023-01-08T16:25:42.415Z,97626.13
2023-01-08T16:28:09.865Z,97627.84
2023-01-08T16:30:39.622Z,97635.25
2023-01-08T16:33:07.175Z,97633.19
2023-01-08T16:35:36.136Z,97649.47
2023-01-08T16:38:03.665Z,97642.19
2023-01-08T16:40:31.138Z,97635.47
2023-01-08T16:43:00.798Z,97647.09
2023-01-08T16:45:28.349Z,97650.13
2023-01-08T16:47:56.153Z,97653.53
2023-01-08T16:50:23.612Z,97663.50
2023-01-08T16:52:52.491Z,97656.69
2023-01-08T16:55:19.992Z,97663.16
2023-01-08T16:57:47.490Z,97665.34
2023-01-08T17:00:15.677Z,97668.53
2023-01-08T17:02:43.121Z,97672.09
2023-01-08T17:05:10.694Z,97674.97
2023-01-08T17:07:38.767Z,97682.25
2023-01-08T17:10:09.697Z,97687.53
2023-01-08T17:12:37.243Z,97685.44
2023-01-08T17:15:05.694Z,97690.28
2023-01-08T17:17:33.114Z,97693.06
2023-01-08T17:20:00.544Z,97694.19
2023-01-08T17:22:28.351Z,97692.13
2023-01-08T17:24:55.859Z,97694.66
2023-01-08T17:27:24.770Z,97699.34
2023-01-08T17:29:52.290Z,97697.06
2023-01-08T17:32:20.038Z,97709.22
2023-01-08T17:34:47.673Z,97706.84
2023-01-08T17:37:15.901Z,97712.75
2023-01-08T17:39:43.364Z,97718.59
2023-01-08T17:42:13.244Z,97717.66
2023-01-08T17:44:42.169Z,97726.53
2023-01-08T17:47:09.623Z,97728.63
2023-01-08T17:49:37.167Z,97729.38
2023-01-08T17:52:04.725Z,97734.44
2023-01-08T17:54:32.305Z,97737.13
2023-01-08T17:56:59.741Z,97750.34
2023-01-08T17:59:27.278Z,97748.69
2023-01-08T18:01:56.382Z,97752.41
2023-01-08T18:04:24.119Z,97760.50
2023-01-08T18:06:52.163Z,97767.91
2023-01-08T18:09:20.525Z,97771.38
2023-01-08T18:11:47.990Z,97775.56
2023-01-08T18:14:15.431Z,97777.97
2023-01-08T18:16:42.962Z,97775.56
2023-01-08T18:19:12.599Z,97782.94
2023-01-08T18:21:41.582Z,97792.81
2023-01-08T18:24:09.963Z,97794.47
2023-01-08T18:26:37.714Z,97792.66
2023-01-08T18:29:05.752Z,97797.38
2023-01-08T18:31:33.324Z,97806.88
2023-01-08T18:34:00.790Z,97802.72
2023-01-08T18:36:29.792Z,97804.09
2023-01-08T18:38:57.485Z,97817.13
2023-01-08T18:41:24.980Z,97818.22
2023-01-08T18:43:52.437Z,97810.94
2023-01-08T18:46:19.881Z,97813.81
2023-01-08T18:48:47.333Z,97822.03
2023-01-08T18:51:14.845Z,97814.34
2023-01-08T18:53:43.772Z,97823.06
2023-01-08T18:56:12.227Z,97824.97
2023-01-08T18:58:39.659Z,97832.81
2023-01-08T19:01:08.445Z,97827.84
2023-01-08T19:03:37.705Z,97835.25
2023-01-08T19:06:05.665Z,97840.16
2023-01-08T19:08:33.090Z,97836.13
2023-01-08T19:11:05.292Z,97848.34
2023-01-08T19:13:33.322Z,97850.47
2023-01-08T19:16:04.163Z,97858.88
2023-01-08T19:18:31.994Z,97855.34
2023-01-08T19:21:00.267Z,97858.66
2023-01-08T19:23:28.534Z,97861.25
2023-01-08T19:25:55.946Z,97870.69
2023-01-08T19:28:24.876Z,97873.63
2023-01-08T19:30:55.745Z,97884.25
2023-01-08T19:33:23.586Z,97883.44
2023-01-08T19:35:51.359Z,97881.03
2023-01-08T19:38:19.522Z,97885.38
2023-01-08T19:40:46.938Z,97882.19
2023-01-08T19:43:14.935Z,97895.03
2023-01-08T19:45:43.861Z,97899.31
2023-01-08T19:48:11.381Z,97899.56
2023-01-08T19:50:39.305Z,97906.09
2023-01-08T19:53:06.739Z,97900.94
2023-01-08T19:55:35.840Z,97912.63
2023-01-08T19:58:03.554Z,97909.25
2023-01-08T20:00:31.449Z,97916.31
2023-01-08T20:03:00.808Z,97917.00
2023-01-08T20:05:28.327Z,97923.41
2023-01-08T20:07:55.799Z,97919.94
2023-01-08T20:10:23.525Z,97926.19
2023-01-08T20:12:51.032Z,97927.75
2023-01-08T20:15:18.711Z,97936.25
2023-01-08T20:17:46.139Z,97939.97
2023-01-08T20:20:15.393Z,97942.63
2023-01-08T20:22:42.831Z,97944.94
2023-01-08T20:25:10.683Z,97951.97
2023-01-08T20:27:38.102Z,97944.19
2023-01-08T20:30:06.277Z,97942.78
2023-01-08T20:32:34.287Z,97945.75
2023-01-08T20:35:01.751Z,97956.56
2023-01-08T20:37:30.738Z,97957.00
2023-01-08T20:39:58.933Z,97955.94
2023-01-08T20:42:33.282Z,97956.03
2023-01-08T20:45:01.752Z,97962.09
2023-01-08T20:47:29.246Z,97964.84
2023-01-08T20:49:56.739Z,97968.41
2023-01-08T20:52:24.247Z,97978.38
2023-01-08T20:54:53.164Z,97975.22
2023-01-08T20:57:20.986Z,97978.19
2023-01-08T20:59:48.687Z,97981.81
2023-01-08T21:02:16.193Z,97991.88
2023-01-08T21:04:43.620Z,97992.47
2023-01-08T21:07:11.104Z,97993.44
2023-01-08T21:09:40.249Z,97999.19
2023-01-08T21:12:09.348Z,97998.91
2023-01-08T21:14:36.849Z,98003.03
2023-01-08T21:17:04.313Z,98008.38
2023-01-08T21:19:31.781Z,98018.41
2023-01-08T21:21:59.245Z,98013.69
2023-01-08T21:24:26.693Z,98017.97
2023-01-08T21:26:54.121Z,98025.16
2023-01-08T21:29:22.999Z,98024.44
2023-01-08T21:31:51.069Z,98026.38
2023-01-08T21:34:18.815Z,98025.31
2023-01-08T21:36:46.739Z,98036.81
2023-01-08T21:39:14.191Z,98029.97
2023-01-08T21:41:41.691Z,98032.00
2023-01-08T21:44:13.336Z,98040.56
2023-01-08T21:46:42.309Z,98044.00
2023-01-08T21:49:09.752Z,98045.63
2023-01-08T21:51:37.284Z,98052.94
2023-01-08T21:54:05.220Z,98064.31
2023-01-08T21:56:32.684Z,98065.72
2023-01-08T21:59:00.129Z,98074.13
2023-01-08T22:01:27.700Z,98078.75
2023-01-08T22:03:56.656Z,98087.09
2023-01-08T22:06:24.105Z,98086.31
2023-01-08T22:08:52.277Z,98095.34
2023-01-08T22:11:20.060Z,98102.19
2023-01-08T22:13:47.516Z,98107.19
2023-01-08T22:16:15.127Z,98115.94
2023-01-08T22:18:42.608Z,98112.22
2023-01-08T22:21:13.054Z,98105.91
2023-01-08T22:23:41.214Z,98115.44
2023-01-08T22:26:10.671Z,98107.72
2023-01-08T22:28:39.329Z,98119.94
2023-01-08T22:31:07.483Z,98117.53
2023-01-08T22:33:35.688Z,98129.44
2023-01-08T22:36:03.269Z,98131.91
2023-01-08T22:38:32.292Z,98131.09
2023-01-08T22:40:59.847Z,98135.56
2023-01-08T22:43:27.634Z,98142.81
2023-01-08T22:45:57.196Z,98145.25
2023-01-08T22:48:25.568Z,98147.69
2023-01-08T22:50:53.262Z,98150.41
2023-01-08T22:53:20.796Z,98151.41
2023-01-08T22:55:49.710Z,98151.06
2023-01-08T22:58:18.027Z,98155.84
2023-01-08T23:00:45.643Z,98161.97
2023-01-08T23:03:13.200Z,98166.47
2023-01-08T23:05:40.871Z,98171.47
2023-01-08T23:08:08.741Z,98169.13
2023-01-08T23:10:36.285Z,98172.78
2023-01-08T23:13:06.040Z,98175.47
2023-01-08T23:15:33.512Z,98181.53
2023-01-08T23:18:01.022Z,98188.88
2023-01-08T23:20:28.541Z,98192.56
2023-01-08T23:22:56.197Z,98194.03
2023-01-08T23:25:23.708Z,98208.47
2023-01-08T23:27:51.154Z,98208.47
2023-01-08T23:30:20.699Z,98209.78
2023-01-08T23:32:48.120Z,98212.16
2023-01-08T23:35:15.752Z,98211.81
2023-01-08T23:37:43.178Z,98212.31
2023-01-08T23:40:11.888Z,98218.19
2023-01-08T23:42:39.309Z,98220.63
2023-01-08T23:45:09.365Z,98223.47
2023-01-08T23:47:39.414Z,98228.38
2023-01-08T23:50:08.311Z,98225.69
2023-01-08T23:52:35.741Z,98227.00
2023-01-08T23:55:03.326Z,98230.72
2023-01-08T23:57:30.799Z,98236.72
2023-01-08T23:59:58.269Z,98239.91
